Terminal Aerodrome Forecast
Issued by NWS Sioux Falls, SD

Home | Current Version | Previous Version | Text Only | Print | Product List | Glossary Off
Versions: 1 2 3 4 5 6 7 8 9 10 11 12 13 14 15 16 17 18 19 20 21 22 23 24 25 26 27 28 29 30 31 32 33 34
000 FTUS43 KFSD 021124 TAFHON TAF KHON 021124Z 0212/0312 18011G18KT P6SM SKC FM021600 22009KT P6SM SKC FM022000 28010G15KT P6SM FEW250 FM022200 27007KT P6SM FEW250 FM030200 VRB05KT P6SM FEW250=

USA.gov is the U.S. government's official web portal to all federal, state and local government web resources and services.